Terminal Aerodrome Forecast
Issued by NWS Northern Indiana

Home | Current Version | Previous Version | Text Only | Print | Product List | Glossary On
Versions: 1 2 3 4 5 6 7 8 9 10 11 12 13 14 15 16 17 18
239
FTUS43 KIWX 150532
TAFFWA
TAF
KFWA 150532Z 1506/1606 23009KT 1/2SM -DZ FG OVC003 WS020/24040KT
     FM151500 22009KT 1SM -RA BR OVC003
     FM160200 29008KT 1SM -DZ BR OVC003=

USA.gov is the U.S. government's official web portal to all federal, state and local government web resources and services.